Stations météo

réclame
Mon MeteoGroup
Formigueres, France (7737): Température de l'air & dewpoint: 20.02.2020 17:00:00 - 26.02.2020 17:00:00 (CET)Formigueres, France (7737): Vitesse du vent & gusts: 20.02.2020 17:00:00 - 26.02.2020 17:00:00 (CET)Formigueres, France (7737): Direction du vent: 20.02.2020 17:00:00 - 26.02.2020 17:00:00 (CET)Formigueres, France (7737): Quantités de précipitations: 20.02.2020 17:00:00 - 26.02.2020 17:00:00 (CET)
Date & Time tt [°C] td [°C] ff [km/h] ff [knt] fx [km/h] fx [knt] dd rr [mm]
26.02.2020 17:00:00 2,2 -4,3 16 9 57 31 NNE 0,0
26.02.2020 16:00:00 2,9 -4,1 26 14 63 34 N 0,0
26.02.2020 15:00:00 3,1 -5,3 15 8 67 36 NNE 0,2
26.02.2020 14:00:00 2,5 -3,6 15 8 61 33 NNW 0,0
26.02.2020 13:00:00 3,4 -4,1 16 9 57 31 N -
26.02.2020 12:00:00 3,6 -3,9 13 7 61 33 NNW 0,0
26.02.2020 11:00:00 2,0 -4,7 18 10 70 38 NW 0,0
26.02.2020 10:00:00 1,5 -5,7 26 14 67 36 W 0,0
26.02.2020 09:00:00 0,4 -2,2 11 6 55 30 N 0,2
26.02.2020 08:00:00 0,2 -2,5 16 9 48 26 N 0,0
26.02.2020 07:00:00 1,1 -4,6 9 5 61 33 NW -
26.02.2020 06:00:00 -0,3 -1,9 22 12 65 35 N 0,0
26.02.2020 05:00:00 1,9 -4,4 16 9 85 46 W 0,0
26.02.2020 04:00:00 1,6 -4,5 18 10 65 35 WSW 0,0
26.02.2020 03:00:00 1,8 -3,7 9 5 67 36 ESE 0,0
26.02.2020 02:00:00 0,7 -2,4 9 5 50 27 ESE 0,0
26.02.2020 01:00:00 0,6 -0,3 18 10 48 26 NNE -
26.02.2020 00:00:00 1,5 0,3 18 10 42 23 NE 0,0
25.02.2020 23:00:00 1,9 1,0 15 8 37 20 NNE 0,2
25.02.2020 22:00:00 2,7 1,7 16 9 31 17 NNE 0,0
25.02.2020 21:00:00 2,4 1,4 8 4 15 8 NE 0,4
25.02.2020 20:00:00 3,4 0,6 13 7 34 18 NNE 0,2
25.02.2020 19:00:00 5,1 -0,7 9 5 29 16 N -
25.02.2020 18:00:00 5,7 0,0 9 5 39 21 NNW 0,0
25.02.2020 17:00:00 9,0 -1,7 8 4 31 17 E 0,0
25.02.2020 16:00:00 7,3 -0,9 13 7 50 27 N 0,0
25.02.2020 15:00:00 8,6 -3,0 16 9 48 26 WNW 0,0
25.02.2020 14:00:00 8,9 -3,7 18 10 42 23 NNW 0,0
25.02.2020 13:00:00 7,2 -2,3 22 12 41 22 N -
25.02.2020 12:00:00 5,7 -5,0 22 12 41 22 NNE 0,0
25.02.2020 11:00:00 4,9 -4,7 21 11 37 20 NE 0,0
25.02.2020 10:00:00 2,6 -5,3 4 2 9 5 N 0,0
25.02.2020 09:00:00 -0,4 -7,0 0 0 18 10 N 0,0
25.02.2020 08:00:00 -1,8 -8,8 4 2 21 11 N 0,0
25.02.2020 07:00:00 0,4 -9,9 11 6 22 12 W -
25.02.2020 06:00:00 -0,7 -9,6 5 3 22 12 WSW 0,0
25.02.2020 05:00:00 -0,6 -8,1 9 5 18 10 WSW 0,0
25.02.2020 04:00:00 -1,1 -7,3 4 2 16 9 WSW 0,0
25.02.2020 03:00:00 -1,0 -8,2 9 5 22 12 SW 0,0
25.02.2020 02:00:00 0,2 -7,3 11 6 22 12 WSW 0,0
25.02.2020 01:00:00 0,7 -7,1 9 5 21 11 WSW -
25.02.2020 00:00:00 0,4 -7,6 8 4 16 9 WSW 0,0
24.02.2020 23:00:00 1,2 -7,3 11 6 16 9 WSW 0,0
24.02.2020 22:00:00 2,4 -7,5 13 7 18 10 WSW 0,0
24.02.2020 21:00:00 3,6 -7,8 13 7 22 12 W 0,0
24.02.2020 20:00:00 5,1 -7,4 15 8 22 12 WSW 0,0
24.02.2020 19:00:00 9,2 -5,9 13 7 22 12 N -
24.02.2020 18:00:00 12,2 -5,8 9 5 28 15 N 0,0
24.02.2020 17:00:00 15,2 -8,3 15 8 29 16 N 0,0
24.02.2020 16:00:00 16,8 -9,2 21 11 41 22 NNE 0,0
24.02.2020 15:00:00 18,1 -11,8 16 9 35 19 NNE 0,0
24.02.2020 14:00:00 18,1 -18,3 13 7 31 17 N 0,0
24.02.2020 13:00:00 18,2 -9,8 13 7 26 14 NNE -
24.02.2020 12:00:00 18,3 -8,0 4 2 11 6 E 0,0
24.02.2020 11:00:00 14,3 -6,0 2 1 9 5 ENE 0,0
24.02.2020 10:00:00 9,9 -6,5 0 0 5 3 N 0,0
24.02.2020 09:00:00 5,6 -8,0 4 2 21 11 W 0,0
24.02.2020 08:00:00 1,6 -10,3 13 7 24 13 WSW 0,0
24.02.2020 07:00:00 2,4 -10,5 18 10 26 14 WSW -
24.02.2020 06:00:00 2,5 -10,4 18 10 28 15 WSW 0,0
24.02.2020 05:00:00 1,4 -9,8 11 6 22 12 WSW 0,0
24.02.2020 04:00:00 2,4 -10,2 13 7 22 12 WSW 0,0
24.02.2020 03:00:00 1,3 -10,2 13 7 22 12 WSW 0,0
24.02.2020 02:00:00 1,8 -9,5 13 7 22 12 WSW 0,0
24.02.2020 01:00:00 1,7 -8,7 15 8 22 12 WSW -
24.02.2020 00:00:00 1,4 -7,7 13 7 21 11 WSW 0,0
23.02.2020 23:00:00 1,7 -6,9 13 7 18 10 W 0,0
23.02.2020 22:00:00 2,2 -6,2 13 7 21 11 WSW 0,0
23.02.2020 21:00:00 3,1 -5,8 11 6 22 12 W 0,0
23.02.2020 20:00:00 4,2 -5,3 13 7 22 12 W 0,0
23.02.2020 19:00:00 6,8 -4,6 11 6 21 11 WSW -
23.02.2020 18:00:00 11,5 -2,3 8 4 37 20 NNE 0,0
23.02.2020 17:00:00 14,0 -0,5 18 10 37 20 NNE 0,0
23.02.2020 16:00:00 15,9 -5,2 22 12 39 21 NNE 0,0
23.02.2020 15:00:00 17,4 -7,2 21 11 34 18 NNE 0,0
23.02.2020 14:00:00 18,0 -6,7 15 8 37 20 NNE 0,0
23.02.2020 13:00:00 17,4 -7,2 16 9 29 16 NNE -
23.02.2020 12:00:00 16,6 -7,2 11 6 21 11 NNE 0,0
23.02.2020 11:00:00 13,9 -4,3 2 1 9 5 E 0,0
23.02.2020 10:00:00 10,2 -1,5 2 1 5 3 E 0,0
23.02.2020 09:00:00 4,4 -5,9 0 0 18 10 N 0,0
23.02.2020 08:00:00 2,2 -6,9 15 8 22 12 WSW 0,0
23.02.2020 07:00:00 1,0 -7,3 9 5 21 11 WSW -
23.02.2020 06:00:00 0,7 -6,6 11 6 22 12 WSW 0,0
23.02.2020 05:00:00 0,0 -6,4 9 5 21 11 WSW 0,0
23.02.2020 04:00:00 0,1 -6,5 8 4 22 12 WSW 0,0
23.02.2020 03:00:00 -0,3 -6,5 8 4 13 7 SW 0,0
23.02.2020 02:00:00 -0,3 -6,7 4 2 21 11 N 0,0
23.02.2020 01:00:00 -0,5 -6,5 9 5 18 10 WSW -
23.02.2020 00:00:00 0,4 -6,0 9 5 21 11 SW 0,0
22.02.2020 23:00:00 1,1 -5,4 8 4 18 10 W 0,0
22.02.2020 22:00:00 2,1 -4,9 13 7 21 11 WSW 0,0
22.02.2020 21:00:00 2,7 -4,8 8 4 22 12 WSW 0,0
22.02.2020 20:00:00 3,8 -3,7 8 4 16 9 SW 0,0
22.02.2020 19:00:00 6,0 -2,9 4 2 16 9 WNW -
22.02.2020 18:00:00 10,6 -3,9 11 6 28 15 N 0,0
22.02.2020 17:00:00 14,2 -7,9 15 8 24 13 NNE 0,0
22.02.2020 16:00:00 15,4 -9,6 11 6 35 19 NNE 0,0
22.02.2020 15:00:00 15,9 -11,6 16 9 34 18 NNE 0,0
22.02.2020 14:00:00 14,8 -12,5 13 7 37 20 NNE 0,0
22.02.2020 13:00:00 14,1 -11,4 22 12 35 19 NNE -
22.02.2020 12:00:00 14,6 -15,6 15 8 29 16 NNE 0,0
22.02.2020 11:00:00 11,3 -9,7 13 7 22 12 NNE 0,0
22.02.2020 10:00:00 6,4 -5,9 4 2 8 4 E 0,0
22.02.2020 09:00:00 2,1 -8,3 0 0 13 7 N 0,0
22.02.2020 08:00:00 -1,3 -11,2 5 3 18 10 W 0,0
22.02.2020 07:00:00 -1,4 -11,3 8 4 21 11 W -
22.02.2020 06:00:00 -1,3 -10,7 9 5 18 10 WSW 0,0
22.02.2020 05:00:00 -1,5 -11,4 8 4 18 10 WSW 0,0
22.02.2020 04:00:00 -2,1 -11,7 8 4 16 9 WSW 0,0
22.02.2020 03:00:00 -1,0 -10,9 8 4 18 10 W 0,0
22.02.2020 02:00:00 -1,7 -10,8 8 4 18 10 W 0,0
22.02.2020 01:00:00 -1,5 -10,6 8 4 21 11 WSW -
22.02.2020 00:00:00 -1,1 -9,7 8 4 18 10 WSW 0,0
21.02.2020 23:00:00 -0,3 -9,0 11 6 18 10 WSW 0,0
21.02.2020 22:00:00 0,5 -7,3 13 7 22 12 WSW 0,0
21.02.2020 21:00:00 0,8 -5,5 13 7 21 11 WSW 0,0
21.02.2020 20:00:00 1,6 -3,9 13 7 22 12 W 0,0
21.02.2020 19:00:00 3,0 -1,9 9 5 18 10 WSW -
21.02.2020 18:00:00 6,3 0,8 15 8 29 16 N 0,0
21.02.2020 17:00:00 8,9 0,3 18 10 35 19 N 0,0
21.02.2020 16:00:00 11,2 -0,9 18 10 37 20 NNE 0,0
21.02.2020 15:00:00 10,1 -0,7 26 14 41 22 N 0,0
21.02.2020 14:00:00 10,9 -1,2 22 12 44 24 NNE 0,0
21.02.2020 13:00:00 11,5 -3,1 15 8 29 16 NNE -
21.02.2020 12:00:00 10,3 -5,3 9 5 21 11 NNE 0,0
21.02.2020 11:00:00 6,4 -2,0 8 4 22 12 NE 0,0
21.02.2020 10:00:00 4,0 -4,7 4 2 11 6 ENE 0,0
21.02.2020 09:00:00 -2,0 -6,6 4 2 18 10 NE 0,0
21.02.2020 08:00:00 -4,9 -8,5 5 3 15 8 WSW 0,0
21.02.2020 07:00:00 -4,6 -9,2 8 4 13 7 WSW -
21.02.2020 06:00:00 -4,3 -8,2 5 3 13 7 WSW 0,0
21.02.2020 05:00:00 -4,4 -7,8 8 4 18 10 SW 0,0
21.02.2020 04:00:00 -3,5 -6,8 8 4 16 9 SW 0,0
21.02.2020 03:00:00 -3,0 -6,5 4 2 21 11 WSW 0,0
21.02.2020 02:00:00 -2,1 -6,3 13 7 18 10 WSW 0,0
21.02.2020 01:00:00 -1,2 -5,8 11 6 22 12 WSW -
21.02.2020 00:00:00 0,4 -4,4 11 6 24 13 N 0,0
20.02.2020 23:00:00 -2,0 -7,3 8 4 18 10 NNW 0,0
20.02.2020 22:00:00 -1,5 -7,0 2 1 18 10 NNE 0,0
20.02.2020 21:00:00 0,5 -6,4 11 6 22 12 WSW 0,0
20.02.2020 20:00:00 1,6 -6,2 16 9 24 13 WSW 0,0
20.02.2020 19:00:00 3,1 -7,1 2 1 26 14 NNE -
20.02.2020 18:00:00 7,6 -6,5 15 8 31 17 N 0,0
20.02.2020 17:00:00 10,7 -6,2 18 10 31 17 N 0,0

tt = Température de l'air
td = dewpoint
ff = Vitesse du vent
fx = gusts
dd = Direction du vent
rr = Quantités de précipitations

stations d'obs. à proximité